Cygnet, Ohio
Current Conditions -  °F | °C
As of 12:53 AM on Friday 19 Dec 2014 (Local Time) from KFDY Reporting Station
Haze Haze  
Wind Chill: 22°   Ceiling: 900
Heat Index: 29°   Visibility: 6mi
Dew Point: 24°   Wind: 7mph
Humidity: 82%   Direction: 270°W
Pressure: 30.2"   Gusts: NA
Location:  41.24°N, 83.64°W
Report Text: KFDY 190553Z AUTO 27006KT 6SM HZ OVC009 M02/M04 A3020 RMK AO2 SLP232 T10171044 11017 21017 50001
Loading
Personal Weather Stations






























Interactive Weather Map New forecast layout! Learn more

10-Day Weather Forecast

Advertisements
Track Severe Weather on mobile